createdAt,value
2023-01-05T00:01:50.223Z,101170.84
2023-01-05T00:04:19.286Z,101188.34
2023-01-05T00:06:47.801Z,101175.25
2023-01-05T00:09:18.974Z,101179.59
2023-01-05T00:12:05.439Z,101170.84
2023-01-05T00:14:53.702Z,101174.34
2023-01-05T00:17:42.244Z,101196.16
2023-01-05T00:20:35.979Z,101184.75
2023-01-05T00:23:04.807Z,101176.94
2023-01-05T00:25:37.999Z,101171.66
2023-01-05T00:28:07.683Z,101179.53
2023-01-05T00:30:42.621Z,101188.31
2023-01-05T00:33:11.884Z,101176.06
2023-01-05T00:35:41.148Z,101175.16
2023-01-05T00:38:10.524Z,101188.28
2023-01-05T00:40:39.311Z,101187.41
2023-01-05T00:43:07.812Z,101183.06
2023-01-05T00:45:37.986Z,101183.06
2023-01-05T00:48:07.309Z,101202.28
2023-01-05T00:50:35.767Z,101190.88
2023-01-05T00:53:04.289Z,101196.97
2023-01-05T00:55:32.810Z,101196.13
2023-01-05T00:58:01.375Z,101190.88
2023-01-05T01:00:29.796Z,101199.63
2023-01-05T01:02:59.629Z,101196.13
2023-01-05T01:05:28.415Z,101186.50
2023-01-05T01:07:56.909Z,101194.34
2023-01-05T01:10:25.579Z,101206.59
2023-01-05T01:12:55.255Z,101187.34
2023-01-05T01:15:23.843Z,101196.97
2023-01-05T01:17:52.350Z,101188.22
2023-01-05T01:20:22.892Z,101201.34
2023-01-05T01:22:51.471Z,101203.09
2023-01-05T01:25:20.257Z,101195.22
2023-01-05T01:27:48.928Z,101202.19
2023-01-05T01:30:17.853Z,101203.94
2023-01-05T01:32:46.309Z,101215.25
2023-01-05T01:35:15.143Z,101196.00
2023-01-05T01:37:45.039Z,101224.88
2023-01-05T01:40:13.968Z,101227.47
2023-01-05T01:42:43.685Z,101219.59
2023-01-05T01:45:20.722Z,101223.09
2023-01-05T01:47:54.434Z,101234.44
2023-01-05T01:50:28.710Z,101223.94
2023-01-05T01:53:03.440Z,101228.34
2023-01-05T01:55:33.398Z,101237.03
2023-01-05T01:58:04.820Z,101255.38
2023-01-05T02:00:33.596Z,101238.72
2023-01-05T02:03:02.084Z,101260.59
2023-01-05T02:05:33.588Z,101277.16
2023-01-05T02:08:03.434Z,101255.34
2023-01-05T02:10:46.944Z,101270.19
2023-01-05T02:13:33.033Z,101261.44
2023-01-05T02:16:11.516Z,101257.03
2023-01-05T02:19:02.951Z,101271.88
2023-01-05T02:21:48.015Z,101257.88
2023-01-05T02:25:06.929Z,101259.69
2023-01-05T02:28:00.955Z,101261.38
2023-01-05T02:31:01.933Z,101264.81
2023-01-05T02:33:55.893Z,101257.00
2023-01-05T02:36:30.716Z,101260.50
2023-01-05T02:39:07.591Z,101252.56
2023-01-05T02:41:41.077Z,101258.69
2023-01-05T02:44:10.544Z,101258.69
2023-01-05T02:46:40.458Z,101249.88
2023-01-05T02:49:10.335Z,101260.34
2023-01-05T02:51:43.474Z,101257.72
2023-01-05T02:54:18.681Z,101272.56
2023-01-05T02:56:52.456Z,101266.50
2023-01-05T02:59:27.888Z,101269.13
2023-01-05T03:02:01.559Z,101279.56
2023-01-05T03:04:34.964Z,101255.13
2023-01-05T03:07:06.620Z,101276.06
2023-01-05T03:09:38.625Z,101275.22
2023-01-05T03:12:31.867Z,101286.59
2023-01-05T03:15:05.182Z,101286.59
2023-01-05T03:17:41.510Z,101283.94
2023-01-05T03:20:12.706Z,101280.50
2023-01-05T03:23:01.428Z,101297.06
2023-01-05T03:25:47.089Z,101306.63
2023-01-05T03:28:38.474Z,101290.06
2023-01-05T03:31:39.892Z,101304.91
2023-01-05T03:34:35.603Z,101318.00
2023-01-05T03:37:08.675Z,101296.19
2023-01-05T03:39:39.912Z,101310.19
2023-01-05T03:42:10.849Z,101314.56
2023-01-05T03:44:41.655Z,101316.34
2023-01-05T03:47:15.007Z,101305.88
2023-01-05T03:49:45.576Z,101312.03
2023-01-05T03:52:14.587Z,101312.84
2023-01-05T03:54:43.294Z,101308.47
2023-01-05T03:57:11.939Z,101314.56
2023-01-05T03:59:40.585Z,101324.19
2023-01-05T04:02:09.111Z,101316.31
2023-01-05T04:04:37.714Z,101324.16
2023-01-05T04:07:08.522Z,101311.91
2023-01-05T04:09:37.040Z,101320.56
2023-01-05T04:12:07.775Z,101324.97
2023-01-05T04:14:36.271Z,101336.25
2023-01-05T04:17:04.782Z,101338.88
2023-01-05T04:19:33.238Z,101345.94
2023-01-05T04:22:02.115Z,101345.97
2023-01-05T04:24:32.063Z,101342.56
2023-01-05T04:27:00.640Z,101331.25
2023-01-05T04:29:29.085Z,101339.19
2023-01-05T04:31:57.903Z,101341.81
2023-01-05T04:34:26.356Z,101350.59
2023-01-05T04:36:55.252Z,101359.41
2023-01-05T04:39:23.865Z,101353.34
2023-01-05T04:41:53.831Z,101364.75
2023-01-05T04:44:22.665Z,101350.78
2023-01-05T04:46:51.179Z,101362.19
2023-01-05T04:49:19.538Z,101357.84
2023-01-05T04:51:48.828Z,101361.41
2023-01-05T04:54:17.591Z,101365.81
2023-01-05T04:56:45.943Z,101373.69
2023-01-05T04:59:15.837Z,101375.47
2023-01-05T05:01:44.807Z,101360.59
2023-01-05T05:04:13.669Z,101367.63
2023-01-05T05:06:42.125Z,101364.16
2023-01-05T05:09:10.659Z,101368.53
2023-01-05T05:11:39.162Z,101368.53
2023-01-05T05:14:07.802Z,101394.78
2023-01-05T05:16:37.769Z,101383.41
2023-01-05T05:19:18.267Z,101393.06
2023-01-05T05:21:46.750Z,101394.78
2023-01-05T05:24:15.301Z,101401.81
2023-01-05T05:26:43.748Z,101411.44
2023-01-05T05:29:12.298Z,101412.31
2023-01-05T05:31:42.676Z,101414.06
2023-01-05T05:34:11.128Z,101412.34
2023-01-05T05:36:39.644Z,101418.47
2023-01-05T05:39:08.166Z,101429.84
2023-01-05T05:41:36.707Z,101421.09
2023-01-05T05:44:05.669Z,101439.50
2023-01-05T05:46:34.755Z,101448.19
2023-01-05T05:49:04.905Z,101429.00
2023-01-05T05:51:33.691Z,101435.97
2023-01-05T05:54:02.318Z,101447.38
2023-01-05T05:56:31.530Z,101442.13
2023-01-05T05:59:01.743Z,101452.63
2023-01-05T06:01:31.181Z,101445.59
2023-01-05T06:04:00.017Z,101460.34
2023-01-05T06:06:30.371Z,101460.25
2023-01-05T06:08:59.090Z,101454.91
2023-01-05T06:11:28.463Z,101455.63
2023-01-05T06:13:57.255Z,101473.13
2023-01-05T06:16:25.825Z,101481.00
2023-01-05T06:18:54.524Z,101488.88
2023-01-05T06:21:23.083Z,101481.91
2023-01-05T06:23:53.785Z,101492.44
2023-01-05T06:26:22.721Z,101500.34
2023-01-05T06:28:51.556Z,101496.91
2023-01-05T06:31:20.490Z,101504.78
2023-01-05T06:33:49.509Z,101496.03
2023-01-05T06:36:18.838Z,101495.16
2023-01-05T06:38:47.547Z,101503.06
2023-01-05T06:41:17.746Z,101501.25
2023-01-05T06:43:46.954Z,101511.75
2023-01-05T06:46:15.507Z,101517.00
2023-01-05T06:48:44.184Z,101512.66
2023-01-05T06:51:13.359Z,101523.16
2023-01-05T06:53:42.817Z,101528.41
2023-01-05T06:56:11.384Z,101544.91
2023-01-05T06:58:42.755Z,101525.56
2023-01-05T07:01:13.255Z,101534.28
2023-01-05T07:03:42.206Z,101533.41
2023-01-05T07:06:14.953Z,101529.06
2023-01-05T07:08:44.625Z,101539.66
2023-01-05T07:11:13.972Z,101553.59
2023-01-05T07:13:44.542Z,101547.28
2023-01-05T07:16:13.366Z,101546.28
2023-01-05T07:18:41.916Z,101543.59
2023-01-05T07:21:10.795Z,101544.41
2023-01-05T07:23:39.302Z,101550.53
2023-01-05T07:26:09.455Z,101538.16
2023-01-05T07:28:38.710Z,101554.00
2023-01-05T07:31:09.511Z,101554.91
2023-01-05T07:33:40.216Z,101562.84
2023-01-05T07:36:09.953Z,101545.47
2023-01-05T07:38:39.117Z,101566.50
2023-01-05T07:41:07.826Z,101571.81
2023-01-05T07:43:36.867Z,101577.09
2023-01-05T07:46:07.494Z,101571.91
2023-01-05T07:48:35.944Z,101586.81
2023-01-05T07:51:06.317Z,101585.97
2023-01-05T07:53:43.977Z,101586.91
2023-01-05T07:56:14.523Z,101593.91
2023-01-05T07:58:44.182Z,101602.69
2023-01-05T08:01:17.887Z,101610.56
2023-01-05T08:03:46.831Z,101613.22
2023-01-05T08:06:17.865Z,101626.34
2023-01-05T08:08:46.983Z,101630.72
2023-01-05T08:11:21.058Z,101632.44
2023-01-05T08:14:03.009Z,101647.25
2023-01-05T08:16:35.105Z,101638.47
2023-01-05T08:19:09.214Z,101642.03
2023-01-05T08:21:39.548Z,101646.34
2023-01-05T08:24:09.079Z,101642.03
2023-01-05T08:26:38.319Z,101647.25
2023-01-05T08:29:07.655Z,101649.88
2023-01-05T08:31:38.336Z,101655.13
2023-01-05T08:34:07.411Z,101661.31
2023-01-05T08:36:35.880Z,101666.56
2023-01-05T08:39:05.210Z,101661.25
2023-01-05T08:41:36.508Z,101665.50
2023-01-05T08:44:08.330Z,101671.63
2023-01-05T08:46:38.688Z,101677.78
2023-01-05T08:49:09.677Z,101686.53
2023-01-05T08:51:38.981Z,101683.13
2023-01-05T08:54:07.595Z,101702.38
2023-01-05T08:56:38.971Z,101705.91
2023-01-05T08:59:08.933Z,101695.44
2023-01-05T09:01:39.467Z,101703.25
2023-01-05T09:04:08.494Z,101717.34
2023-01-05T09:06:37.141Z,101717.38
2023-01-05T09:09:05.874Z,101713.00
2023-01-05T09:11:34.889Z,101727.97
2023-01-05T09:14:04.330Z,101734.06
2023-01-05T09:17:05.152Z,101735.88
2023-01-05T09:19:25.744Z,101739.38
2023-01-05T09:21:54.455Z,101744.72
2023-01-05T09:24:23.873Z,101749.03
2023-01-05T09:26:52.625Z,101759.47
2023-01-05T09:29:21.716Z,101748.94
2023-01-05T09:31:50.458Z,101761.09
2023-01-05T09:34:19.508Z,101763.66
2023-01-05T09:36:49.682Z,101759.19
2023-01-05T09:39:18.223Z,101767.00
2023-01-05T09:41:50.148Z,101769.59
2023-01-05T09:44:30.441Z,101775.63
2023-01-05T09:47:04.716Z,101771.09
2023-01-05T09:49:35.640Z,101773.66
2023-01-05T09:52:10.812Z,101791.13
2023-01-05T09:54:40.576Z,101806.84
2023-01-05T09:57:18.872Z,101803.34
2023-01-05T09:59:53.172Z,101795.44
2023-01-05T10:02:31.808Z,101805.03
2023-01-05T10:05:01.837Z,101813.78
2023-01-05T10:07:43.785Z,101809.59
2023-01-05T10:10:30.538Z,101805.34
2023-01-05T10:13:05.614Z,101805.47
2023-01-05T10:15:40.915Z,101819.59
2023-01-05T10:18:16.518Z,101823.16
2023-01-05T10:21:01.513Z,101817.13
2023-01-05T10:23:54.539Z,101818.03
2023-01-05T10:26:28.082Z,101813.75
2023-01-05T10:29:04.695Z,101811.13
2023-01-05T10:31:46.369Z,101814.66
2023-01-05T10:34:24.136Z,101822.44
2023-01-05T10:37:19.848Z,101825.78
2023-01-05T10:40:05.928Z,101835.22
2023-01-05T10:42:56.509Z,101823.59
2023-01-05T10:45:32.473Z,101841.00
2023-01-05T10:48:01.736Z,101840.97
2023-01-05T10:50:38.005Z,101839.22
2023-01-05T10:53:12.755Z,101842.72
2023-01-05T10:55:55.079Z,101854.06
2023-01-05T10:58:25.944Z,101849.59
2023-01-05T11:00:59.347Z,101855.69
2023-01-05T11:04:22.904Z,101856.50
2023-01-05T11:06:31.271Z,101852.16
2023-01-05T11:09:17.426Z,101857.44
2023-01-05T11:11:58.631Z,101853.97
2023-01-05T11:14:28.809Z,101856.59
2023-01-05T11:17:05.582Z,101856.50
2023-01-05T11:19:37.541Z,101851.22
2023-01-05T11:22:06.021Z,101850.34
2023-01-05T11:24:37.045Z,101852.09
2023-01-05T11:27:25.668Z,101840.72
2023-01-05T11:30:30.160Z,101851.22
2023-01-05T11:33:01.651Z,101839.06
2023-01-05T11:35:35.122Z,101850.56
2023-01-05T11:38:03.798Z,101851.53
2023-01-05T11:40:35.962Z,101850.81
2023-01-05T11:43:12.049Z,101854.50
2023-01-05T11:45:48.501Z,101850.25
2023-01-05T11:48:22.743Z,101859.91
2023-01-05T11:50:53.869Z,101858.13
2023-01-05T11:53:39.786Z,101858.84
2023-01-05T11:56:21.787Z,101854.31
2023-01-05T11:58:54.657Z,101855.09
2023-01-05T12:01:59.186Z,101859.59
2023-01-05T12:04:52.978Z,101856.25
2023-01-05T12:07:34.630Z,101860.75
2023-01-05T12:10:36.568Z,101853.00
2023-01-05T12:13:17.430Z,101856.66
2023-01-05T12:16:09.908Z,101862.00
2023-01-05T12:19:10.307Z,101861.16
2023-01-05T12:21:40.911Z,101866.50
2023-01-05T12:24:37.263Z,101870.00
2023-01-05T12:27:23.509Z,101863.03
2023-01-05T12:34:03.599Z,101869.31
2023-01-05T12:36:49.062Z,101862.47
2023-01-05T12:39:53.969Z,101869.59
2023-01-05T12:42:51.318Z,101871.44
2023-01-05T12:45:56.606Z,101873.28
2023-01-05T12:48:31.315Z,101865.41
2023-01-05T12:51:10.329Z,101867.22
2023-01-05T12:53:48.879Z,101880.38
2023-01-05T12:56:26.740Z,101882.13
2023-01-05T12:59:11.596Z,101884.69
2023-01-05T13:01:46.672Z,101882.06
2023-01-05T13:04:41.509Z,101885.47
2023-01-05T13:07:19.224Z,101895.78
2023-01-05T13:10:02.369Z,101894.66
2023-01-05T13:12:33.948Z,101891.81
2023-01-05T13:15:20.154Z,101898.59
2023-01-05T13:17:52.396Z,101902.00
2023-01-05T13:20:29.986Z,101898.41
2023-01-05T13:23:05.402Z,101901.81
2023-01-05T13:25:43.258Z,101907.06
2023-01-05T13:28:21.118Z,101906.25
2023-01-05T13:31:12.311Z,101895.78
2023-01-05T13:34:07.945Z,101890.59
2023-01-05T13:36:55.251Z,101898.56
2023-01-05T13:39:45.493Z,101903.94
2023-01-05T13:42:37.599Z,101898.81
2023-01-05T13:45:34.401Z,101903.25
2023-01-05T13:48:44.379Z,101905.03
2023-01-05T13:51:45.396Z,101907.66
2023-01-05T13:54:21.098Z,101909.41
2023-01-05T13:56:50.925Z,101909.41
2023-01-05T13:59:35.850Z,101911.19
2023-01-05T14:02:30.513Z,101905.94
2023-01-05T14:05:00.179Z,101907.75
2023-01-05T14:07:30.669Z,101910.41
2023-01-05T14:10:00.159Z,101911.31
2023-01-05T14:12:50.492Z,101917.44
2023-01-05T14:15:41.310Z,101911.31
2023-01-05T14:18:11.558Z,101907.78
2023-01-05T14:20:46.479Z,101920.09
2023-01-05T14:24:00.720Z,101914.84
2023-01-05T14:27:03.788Z,101920.13
2023-01-05T14:30:24.279Z,101905.19
2023-01-05T14:32:57.141Z,101914.88
2023-01-05T14:35:37.184Z,101913.19
2023-01-05T14:38:14.917Z,101914.94
2023-01-05T14:40:49.048Z,101907.94
2023-01-05T14:43:35.350Z,101911.38
2023-01-05T14:46:09.714Z,101917.50
2023-01-05T14:48:41.847Z,101920.97
2023-01-05T14:51:24.112Z,101914.84
2023-01-05T14:53:54.928Z,101913.97
2023-01-05T14:56:27.520Z,101914.88
2023-01-05T14:59:20.132Z,101926.22
2023-01-05T15:01:53.719Z,101915.72
2023-01-05T15:04:29.521Z,101913.09
2023-01-05T15:07:20.601Z,101936.72
2023-01-05T15:10:20.192Z,101946.34
2023-01-05T15:13:15.136Z,101937.50
2023-01-05T15:15:48.406Z,101935.75
2023-01-05T15:19:01.547Z,101932.19
2023-01-05T15:22:12.843Z,101931.28
2023-01-05T15:25:12.800Z,101931.19
2023-01-05T15:28:28.432Z,101943.34
2023-01-05T15:31:21.482Z,101937.16
2023-01-05T15:34:01.985Z,101927.53
2023-01-05T15:36:34.526Z,101931.91
2023-01-05T15:39:02.900Z,101931.03
2023-01-05T15:41:31.352Z,101926.66
2023-01-05T15:44:00.035Z,101935.41
2023-01-05T15:46:35.727Z,101928.38
2023-01-05T15:49:04.486Z,101933.59
2023-01-05T15:51:34.488Z,101924.78
2023-01-05T15:54:05.550Z,101928.25
2023-01-05T15:56:36.966Z,101935.22
2023-01-05T15:59:22.412Z,101931.63
2023-01-05T16:01:52.243Z,101944.66
2023-01-05T16:04:21.057Z,101943.75
2023-01-05T16:06:53.599Z,101947.19
2023-01-05T16:09:29.025Z,101941.03
2023-01-05T16:12:01.931Z,101946.22
2023-01-05T16:14:36.944Z,101943.56
2023-01-05T16:17:18.467Z,101930.38
2023-01-05T16:19:50.330Z,101945.13
2023-01-05T16:22:23.722Z,101935.44
2023-01-05T16:24:59.561Z,101923.16
2023-01-05T16:27:28.959Z,101932.78
2023-01-05T16:30:14.519Z,101931.84
2023-01-05T16:32:44.838Z,101932.69
2023-01-05T16:35:35.263Z,101937.94
2023-01-05T16:38:17.639Z,101936.13
2023-01-05T16:41:08.626Z,101925.66
2023-01-05T16:43:43.665Z,101923.88
2023-01-05T16:46:36.905Z,101925.56
2023-01-05T16:49:43.683Z,101930.81
2023-01-05T16:52:27.139Z,101920.31
2023-01-05T16:55:28.645Z,101918.63
2023-01-05T16:57:58.109Z,101920.41
2023-01-05T17:00:39.612Z,101918.69
2023-01-05T17:03:32.638Z,101918.69
2023-01-05T17:06:03.501Z,101917.84
2023-01-05T17:08:36.036Z,101914.34
2023-01-05T17:11:06.004Z,101915.22
2023-01-05T17:13:41.261Z,101920.47
2023-01-05T17:16:12.762Z,101920.47
2023-01-05T17:18:41.637Z,101923.03
2023-01-05T17:21:17.619Z,101923.91
2023-01-05T17:23:50.389Z,101918.63
2023-01-05T17:26:23.496Z,101922.16
2023-01-05T17:28:53.881Z,101911.69
2023-01-05T17:31:22.729Z,101910.81
2023-01-05T17:33:51.202Z,101903.75
2023-01-05T17:36:26.694Z,101894.06
2023-01-05T17:38:55.090Z,101896.63
2023-01-05T17:41:23.574Z,101883.47
2023-01-05T17:43:52.075Z,101900.91
2023-01-05T17:46:30.079Z,101876.38
2023-01-05T17:49:00.694Z,101883.38
2023-01-05T17:51:31.566Z,101892.16
2023-01-05T17:54:01.213Z,101888.69
2023-01-05T17:56:29.641Z,101882.59
2023-01-05T17:58:58.268Z,101883.47
2023-01-05T18:01:26.773Z,101885.25
2023-01-05T18:03:55.285Z,101885.25
2023-01-05T18:06:23.801Z,101873.06
2023-01-05T18:08:54.739Z,101881.84
2023-01-05T18:11:23.362Z,101877.53
2023-01-05T18:13:51.932Z,101877.56
2023-01-05T18:16:20.391Z,101875.81
2023-01-05T18:18:49.869Z,101868.00
2023-01-05T18:21:18.785Z,101871.53
2023-01-05T18:23:47.206Z,101879.41
2023-01-05T18:26:17.150Z,101871.56
2023-01-05T18:28:45.633Z,101876.00
2023-01-05T18:31:15.835Z,101871.63
2023-01-05T18:33:44.521Z,101866.38
2023-01-05T18:36:15.156Z,101863.75
2023-01-05T18:38:44.117Z,101869.06
2023-01-05T18:41:13.049Z,101865.53
2023-01-05T18:43:43.159Z,101863.84
2023-01-05T18:46:11.864Z,101854.19
2023-01-05T18:48:40.398Z,101848.06
2023-01-05T18:51:10.403Z,101842.81
2023-01-05T18:53:39.805Z,101836.72
2023-01-05T18:56:09.789Z,101834.94
2023-01-05T18:58:38.364Z,101835.84
2023-01-05T19:01:14.109Z,101833.22
2023-01-05T19:03:43.295Z,101834.94
2023-01-05T19:06:16.047Z,101826.22
2023-01-05T19:08:45.311Z,101821.81
2023-01-05T19:11:16.843Z,101823.59
2023-01-05T19:13:47.112Z,101828.84
2023-01-05T19:16:18.460Z,101827.97
2023-01-05T19:18:54.028Z,101817.44
2023-01-05T19:21:23.959Z,101813.97
2023-01-05T19:23:58.159Z,101822.72
2023-01-05T19:26:31.555Z,101820.13
2023-01-05T19:29:00.618Z,101823.59
2023-01-05T19:31:31.273Z,101817.50
2023-01-05T19:34:00.399Z,101813.03
2023-01-05T19:36:32.563Z,101814.88
2023-01-05T19:39:02.760Z,101817.44
2023-01-05T19:41:32.842Z,101809.50
2023-01-05T19:44:01.320Z,101810.38
2023-01-05T19:46:32.272Z,101806.00
2023-01-05T19:49:01.239Z,101801.66
2023-01-05T19:51:31.318Z,101806.84
2023-01-05T19:54:02.735Z,101799.84
2023-01-05T19:56:34.641Z,101789.38
2023-01-05T19:59:08.148Z,101786.69
2023-01-05T20:01:39.288Z,101790.22
2023-01-05T20:04:08.295Z,101792.81
2023-01-05T20:06:40.977Z,101785.84
2023-01-05T20:09:12.169Z,101789.38
2023-01-05T20:11:44.575Z,101794.66
2023-01-05T20:14:15.939Z,101784.13
2023-01-05T20:16:50.049Z,101780.66
2023-01-05T20:19:19.837Z,101770.19
2023-01-05T20:21:49.617Z,101776.28
2023-01-05T20:24:21.951Z,101782.47
2023-01-05T20:26:52.102Z,101766.75
2023-01-05T20:29:23.199Z,101773.81
2023-01-05T20:31:57.327Z,101769.44
2023-01-05T20:34:32.061Z,101765.06
2023-01-05T20:37:01.840Z,101765.09
2023-01-05T20:39:30.331Z,101752.88
2023-01-05T20:42:04.752Z,101754.66
2023-01-05T20:44:38.349Z,101745.97
2023-01-05T20:47:09.388Z,101746.88
2023-01-05T20:49:39.805Z,101740.72
2023-01-05T20:52:10.734Z,101751.28
2023-01-05T20:54:39.894Z,101744.31
2023-01-05T20:57:09.324Z,101747.81
2023-01-05T20:59:41.050Z,101753.94
2023-01-05T21:02:23.060Z,101747.03
2023-01-05T21:04:53.504Z,101755.78
2023-01-05T21:07:22.815Z,101748.81
2023-01-05T21:09:52.485Z,101748.00
2023-01-05T21:12:21.972Z,101743.66
2023-01-05T21:14:50.544Z,101740.13
2023-01-05T21:17:20.645Z,101745.44
2023-01-05T21:19:49.991Z,101740.19
2023-01-05T21:22:18.578Z,101739.31
2023-01-05T21:24:47.023Z,101734.06
2023-01-05T21:27:15.415Z,101746.34
2023-01-05T21:29:43.898Z,101743.81
2023-01-05T21:32:12.383Z,101735.94
2023-01-05T21:34:42.581Z,101739.47
2023-01-05T21:37:10.998Z,101747.34
2023-01-05T21:39:39.670Z,101740.34
2023-01-05T21:42:39.612Z,101741.25
2023-01-05T21:45:10.730Z,101741.22
2023-01-05T21:47:40.209Z,101736.91
2023-01-05T21:50:35.217Z,101735.16
2023-01-05T21:53:23.995Z,101732.56
2023-01-05T21:56:09.892Z,101723.88
2023-01-05T21:58:38.778Z,101717.72
2023-01-05T22:01:07.432Z,101715.09
2023-01-05T22:03:36.156Z,101714.25
2023-01-05T22:06:06.599Z,101710.75
2023-01-05T22:08:35.188Z,101705.56
2023-01-05T22:11:05.216Z,101707.34
2023-01-05T22:13:33.940Z,101696.88
2023-01-05T22:16:02.346Z,101703.03
2023-01-05T22:18:30.826Z,101692.53
2023-01-05T22:21:01.097Z,101704.84
2023-01-05T22:23:32.253Z,101689.13
2023-01-05T22:26:03.488Z,101690.91
2023-01-05T22:28:32.323Z,101690.91
2023-01-05T22:31:06.547Z,101684.81
2023-01-05T22:33:36.573Z,101683.13
2023-01-05T22:36:07.001Z,101669.16
2023-01-05T22:38:39.578Z,101679.72
2023-01-05T22:41:10.295Z,101669.25
2023-01-05T22:43:40.284Z,101676.22
2023-01-05T22:46:11.617Z,101667.53
2023-01-05T22:48:42.469Z,101664.91
2023-01-05T22:51:14.805Z,101662.31
2023-01-05T22:53:46.084Z,101665.84
2023-01-05T22:56:16.758Z,101657.97
2023-01-05T22:58:45.211Z,101654.50
2023-01-05T23:01:16.169Z,101664.16
2023-01-05T23:03:44.746Z,101658.91
2023-01-05T23:06:13.922Z,101642.28
2023-01-05T23:08:45.191Z,101645.81
2023-01-05T23:11:20.912Z,101656.34
2023-01-05T23:13:50.789Z,101651.94
2023-01-05T23:16:20.116Z,101640.53
2023-01-05T23:18:50.447Z,101651.03
2023-01-05T23:21:21.087Z,101644.91
2023-01-05T23:23:52.699Z,101638.75
2023-01-05T23:26:21.709Z,101633.50
2023-01-05T23:28:50.302Z,101643.13
2023-01-05T23:31:19.361Z,101633.53
2023-01-05T23:33:49.352Z,101631.78
2023-01-05T23:36:20.461Z,101633.50
2023-01-05T23:38:50.724Z,101629.97
2023-01-05T23:41:19.848Z,101622.06
2023-01-05T23:43:48.810Z,101611.56
2023-01-05T23:46:20.842Z,101624.72
2023-01-05T23:48:50.157Z,101605.44
2023-01-05T23:51:19.097Z,101607.25
2023-01-05T23:53:52.458Z,101603.72
2023-01-05T23:56:23.376Z,101595.88
2023-01-05T23:58:56.987Z,101587.16
